Time;durP1;ratioP1;P1;durP2;ratioP2;P2;SDS_P1;SDS_P2;PMS_P1;PMS_P2;Temp;Humidity;BMP_temperature;BMP_pressure;BME280_temperature;BME280_humidity;BME280_pressure;Samples;Min_cycle;Max_cycle;Signal;HPM_P1;HPM_P2
2021/04/09 00:00:53;;;;;;;10.33;8.97;;;2.40;99.90;;;;;;5073935;28;20175;-56
2021/04/09 00:03:19;;;;;;;12.67;8.97;;;2.40;99.90;;;;;;5073974;28;20172;-53
2021/04/09 00:05:46;;;;;;;10.97;8.93;;;2.50;99.90;;;;;;5074140;28;20293;-54
2021/04/09 00:08:11;;;;;;;12.83;9.27;;;2.50;99.90;;;;;;5072946;28;20167;-49
2021/04/09 00:10:37;;;;;;;11.77;9.60;;;2.50;99.90;;;;;;5074303;28;20435;-48
2021/04/09 00:13:04;;;;;;;12.23;9.60;;;2.50;99.90;;;;;;5073840;28;20823;-48
2021/04/09 00:15:30;;;;;;;12.53;10.17;;;2.50;99.90;;;;;;5073641;28;20267;-53
2021/04/09 00:17:56;;;;;;;15.73;11.43;;;2.50;99.90;;;;;;5073721;28;20800;-47
2021/04/09 00:20:24;;;;;;;11.67;10.40;;;2.50;99.90;;;;;;5074411;28;20178;-47
2021/04/09 00:22:49;;;;;;;12.57;10.60;;;2.50;99.90;;;;;;5073702;28;20239;-51
2021/04/09 00:25:16;;;;;;;12.30;9.63;;;2.50;99.90;;;;;;5073793;28;20449;-59
2021/04/09 00:27:43;;;;;;;13.90;10.90;;;2.50;99.90;;;;;;5073827;28;20253;-48
2021/04/09 00:30:10;;;;;;;14.07;9.77;;;2.40;99.90;;;;;;5074027;28;20401;-59
2021/04/09 00:32:36;;;;;;;11.37;9.90;;;2.40;99.90;;;;;;5073554;28;20459;-48
2021/04/09 00:35:02;;;;;;;14.37;10.50;;;2.40;99.90;;;;;;5074039;28;20494;-53
2021/04/09 00:37:28;;;;;;;13.30;10.63;;;2.30;99.90;;;;;;5073919;28;20673;-48
2021/04/09 00:39:53;;;;;;;12.63;10.50;;;2.30;99.90;;;;;;5074159;28;20408;-55
2021/04/09 00:42:21;;;;;;;12.60;10.73;;;2.30;99.90;;;;;;5073262;28;20276;-58
2021/04/09 00:44:47;;;;;;;12.83;10.50;;;2.30;99.90;;;;;;5073400;28;20264;-48
2021/04/09 00:47:13;;;;;;;12.90;10.37;;;2.30;99.90;;;;;;5073399;28;20421;-55
2021/04/09 00:49:39;;;;;;;13.50;10.57;;;2.20;99.90;;;;;;5074097;28;20171;-48
2021/04/09 00:52:06;;;;;;;11.80;10.13;;;2.20;99.90;;;;;;5073225;28;20495;-48
2021/04/09 00:54:32;;;;;;;12.83;10.00;;;2.30;99.90;;;;;;5073844;28;20174;-48
2021/04/09 00:56:59;;;;;;;14.17;11.10;;;2.20;99.90;;;;;;5073471;28;20443;-48
2021/04/09 00:59:26;;;;;;;13.37;11.00;;;2.30;99.90;;;;;;5073567;28;20436;-59
2021/04/09 01:01:51;;;;;;;14.23;11.87;;;2.30;99.90;;;;;;5073017;28;20424;-59
2021/04/09 01:04:17;;;;;;;14.13;11.60;;;2.30;99.90;;;;;;5072245;28;20454;-50
2021/04/09 01:06:43;;;;;;;14.53;11.00;;;2.30;99.90;;;;;;5073468;28;20222;-52
2021/04/09 01:09:08;;;;;;;15.20;11.10;;;2.30;99.90;;;;;;5072158;28;20526;-53
2021/04/09 01:11:34;;;;;;;13.17;9.93;;;2.20;99.90;;;;;;5073380;28;20646;-47
2021/04/09 01:14:00;;;;;;;14.47;10.47;;;2.20;99.90;;;;;;5073669;28;20186;-48
2021/04/09 01:16:54;;;;;;;13.90;11.20;;;2.20;99.90;;;;;;5073608;28;20251;-48
2021/04/09 01:20:01;;;;;;;12.60;10.10;;;2.10;99.90;;;;;;5074249;28;20190;-57
2021/04/09 01:22:42;;;;;;;13.77;10.13;;;2.10;99.90;;;;;;5076432;28;20449;-54
2021/04/09 01:25:34;;;;;;;12.63;10.37;;;2.20;99.90;;;;;;5076541;28;20463;-55
2021/04/09 01:28:05;;;;;;;12.10;10.30;;;2.10;99.90;;;;;;5076643;28;20424;-53
2021/04/09 01:30:55;;;;;;;11.83;9.83;;;2.00;99.90;;;;;;5077105;28;20408;-52
2021/04/09 01:33:33;;;;;;;11.57;9.87;;;2.00;99.90;;;;;;5076872;28;20780;-48
2021/04/09 01:36:06;;;;;;;12.73;10.30;;;2.00;99.90;;;;;;5076357;28;20448;-54
2021/04/09 01:38:35;;;;;;;11.40;10.20;;;2.00;99.90;;;;;;5076585;28;20419;-58
2021/04/09 01:41:05;;;;;;;13.30;10.63;;;2.00;99.90;;;;;;5075461;28;20471;-52
2021/04/09 01:43:31;;;;;;;12.97;10.33;;;2.10;99.90;;;;;;5076654;28;20412;-55
2021/04/09 01:46:00;;;;;;;11.70;10.20;;;2.10;99.90;;;;;;5076414;28;20460;-48
2021/04/09 01:48:26;;;;;;;12.93;10.27;;;2.10;99.90;;;;;;5075423;28;20182;-53
2021/04/09 01:50:53;;;;;;;12.40;10.60;;;2.10;99.90;;;;;;5075987;28;20409;-52
2021/04/09 01:53:20;;;;;;;13.37;10.10;;;2.10;99.90;;;;;;5076007;28;20519;-49
2021/04/09 01:55:49;;;;;;;12.83;10.43;;;2.10;99.90;;;;;;5075580;28;20440;-59
2021/04/09 01:58:16;;;;;;;14.70;11.10;;;2.10;99.90;;;;;;5076516;28;20421;-48
2021/04/09 02:00:42;;;;;;;11.97;10.07;;;2.10;99.90;;;;;;5075337;28;20486;-50
2021/04/09 02:03:09;;;;;;;12.87;11.13;;;2.20;99.90;;;;;;5075722;28;20419;-59
2021/04/09 02:05:36;;;;;;;11.77;9.83;;;2.30;99.90;;;;;;5076264;28;20455;-49
2021/04/09 02:08:03;;;;;;;14.47;11.63;;;2.30;99.90;;;;;;5075989;28;20409;-48
2021/04/09 02:10:29;;;;;;;13.77;10.70;;;2.30;99.90;;;;;;5075801;28;20412;-54
2021/04/09 02:12:55;;;;;;;12.13;10.83;;;2.30;99.90;;;;;;5074686;28;20491;-51
2021/04/09 02:15:24;;;;;;;13.93;11.20;;;2.30;99.90;;;;;;5075563;28;20412;-48
2021/04/09 02:17:51;;;;;;;13.10;10.93;;;2.30;99.90;;;;;;5075868;28;20178;-48
2021/04/09 02:20:20;;;;;;;14.53;11.10;;;2.20;99.90;;;;;;5075331;28;20481;-52
2021/04/09 02:22:47;;;;;;;12.97;10.73;;;2.20;99.90;;;;;;5075573;28;20405;-54
2021/04/09 02:25:14;;;;;;;12.27;10.57;;;2.20;99.90;;;;;;5075819;28;20497;-54
2021/04/09 02:27:42;;;;;;;13.03;11.10;;;2.20;99.90;;;;;;5075964;28;20412;-59
2021/04/09 02:30:09;;;;;;;15.80;11.73;;;2.20;99.90;;;;;;5075203;28;20405;-57
2021/04/09 02:32:35;;;;;;;14.47;11.73;;;2.20;99.90;;;;;;5074835;28;20416;-54
2021/04/09 02:35:00;;;;;;;14.47;10.87;;;2.10;99.90;;;;;;5075516;28;20762;-48
2021/04/09 02:37:26;;;;;;;13.00;11.20;;;2.10;99.90;;;;;;5075357;28;20452;-54
2021/04/09 02:39:58;;;;;;;14.27;11.70;;;2.10;99.90;;;;;;5075682;28;20178;-53
2021/04/09 02:42:25;;;;;;;15.37;11.50;;;2.20;99.90;;;;;;5074040;28;20225;-56
2021/04/09 02:44:53;;;;;;;12.80;11.27;;;2.20;99.90;;;;;;5075232;28;20456;-48
2021/04/09 02:47:24;;;;;;;12.50;11.17;;;2.10;99.90;;;;;;5074177;28;20518;-54
2021/04/09 02:50:02;;;;;;;15.37;11.93;;;2.10;99.90;;;;;;5075313;28;20411;-48
2021/04/09 02:52:34;;;;;;;14.87;11.70;;;2.10;99.90;;;;;;5075385;28;20463;-48
2021/04/09 02:55:12;;;;;;;14.80;12.03;;;2.10;99.90;;;;;;5074410;28;21042;-57
2021/04/09 02:57:38;;;;;;;13.40;11.73;;;2.10;99.90;;;;;;5074671;28;20389;-56
2021/04/09 03:00:05;;;;;;;15.03;12.77;;;2.10;99.90;;;;;;5073854;28;20412;-48
2021/04/09 03:02:32;;;;;;;13.83;11.90;;;2.00;99.90;;;;;;5074085;28;20416;-59
2021/04/09 03:04:58;;;;;;;13.40;12.00;;;2.10;99.90;;;;;;5075233;28;20828;-47
2021/04/09 03:07:24;;;;;;;14.83;12.17;;;2.10;99.90;;;;;;5074554;28;20432;-54
2021/04/09 03:09:49;;;;;;;16.93;13.67;;;2.10;99.90;;;;;;5073885;28;20626;-54
2021/04/09 03:12:17;;;;;;;15.90;13.57;;;2.10;99.90;;;;;;5073618;28;20196;-56
2021/04/09 03:14:44;;;;;;;16.10;13.37;;;2.10;99.90;;;;;;5074674;28;20178;-58
2021/04/09 03:17:20;;;;;;;15.43;11.97;;;2.00;99.90;;;;;;5074279;28;20486;-58
2021/04/09 03:19:46;;;;;;;14.40;11.97;;;2.00;99.90;;;;;;5074615;28;20401;-51
2021/04/09 03:22:12;;;;;;;15.40;12.90;;;1.90;99.90;;;;;;5071038;28;20441;-54
2021/04/09 03:24:38;;;;;;;16.67;12.60;;;1.80;99.90;;;;;;5056245;28;20210;-51
2021/04/09 03:27:14;;;;;;;15.90;12.53;;;1.90;99.90;;;;;;5058084;28;20438;-53
2021/04/09 03:29:40;;;;;;;14.67;12.10;;;1.90;99.90;;;;;;5061591;28;20546;-48
2021/04/09 03:32:06;;;;;;;14.60;12.97;;;1.90;99.90;;;;;;5062463;28;20438;-55
2021/04/09 03:34:31;;;;;;;14.13;12.43;;;1.80;99.90;;;;;;5056090;28;20193;-47
2021/04/09 03:36:57;;;;;;;15.90;12.30;;;1.80;99.90;;;;;;5056108;28;20256;-57
2021/04/09 03:39:22;;;;;;;16.17;12.00;;;1.80;99.90;;;;;;5064525;28;20221;-47
2021/04/09 03:41:48;;;;;;;16.77;12.53;;;1.80;99.90;;;;;;5062904;28;20189;-52
2021/04/09 03:44:13;;;;;;;16.10;13.17;;;1.80;99.90;;;;;;5062286;28;20178;-52
2021/04/09 03:46:39;;;;;;;15.47;12.73;;;1.70;99.90;;;;;;5063939;28;20645;-46
2021/04/09 03:49:04;;;;;;;16.80;13.13;;;1.80;99.90;;;;;;5064887;28;20187;-50
2021/04/09 03:51:30;;;;;;;17.03;13.63;;;1.80;99.90;;;;;;5057568;28;20182;-49
2021/04/09 03:53:57;;;;;;;15.33;13.67;;;1.80;99.90;;;;;;5058590;28;20179;-58
2021/04/09 03:56:23;;;;;;;17.37;13.60;;;1.80;99.90;;;;;;5060291;28;20952;-48
2021/04/09 03:58:48;;;;;;;15.23;13.13;;;1.80;99.90;;;;;;5058276;28;20524;-47
2021/04/09 04:01:14;;;;;;;16.23;13.67;;;1.80;99.90;;;;;;5063158;28;20221;-47
2021/04/09 04:03:39;;;;;;;15.37;12.97;;;1.90;99.90;;;;;;5059486;28;20190;-47
2021/04/09 04:06:05;;;;;;;16.93;13.50;;;1.80;99.90;;;;;;5063162;28;20233;-57
2021/04/09 04:08:31;;;;;;;15.27;13.57;;;1.90;99.90;;;;;;5062202;28;20178;-49
2021/04/09 04:10:56;;;;;;;16.27;13.83;;;1.90;99.90;;;;;;5060313;28;20183;-58
2021/04/09 04:13:22;;;;;;;17.90;13.60;;;1.80;99.90;;;;;;5054121;28;20183;-51
2021/04/09 04:15:48;;;;;;;16.00;13.60;;;1.80;99.90;;;;;;5052705;28;20218;-47
2021/04/09 04:18:14;;;;;;;14.80;12.73;;;1.70;99.90;;;;;;5053581;28;20769;-46
2021/04/09 04:20:40;;;;;;;14.30;12.80;;;1.70;99.90;;;;;;5052647;28;20274;-46
2021/04/09 04:23:05;;;;;;;14.70;12.13;;;1.70;99.90;;;;;;5053403;28;20237;-47
2021/04/09 04:25:31;;;;;;;17.43;13.60;;;1.70;99.90;;;;;;5053830;28;20226;-56
2021/04/09 04:27:57;;;;;;;16.63;12.57;;;1.70;99.90;;;;;;5058507;28;20197;-58
2021/04/09 04:30:22;;;;;;;16.17;12.57;;;1.70;99.90;;;;;;5074612;28;20178;-52
2021/04/09 04:32:48;;;;;;;14.53;13.03;;;1.70;99.90;;;;;;5067021;28;20225;-52
2021/04/09 04:35:14;;;;;;;15.03;12.70;;;1.70;99.90;;;;;;5073851;28;20665;-47
2021/04/09 04:37:39;;;;;;;16.00;13.47;;;1.80;99.90;;;;;;5069826;28;20230;-53
2021/04/09 04:40:06;;;;;;;15.63;13.93;;;1.70;99.90;;;;;;5052471;28;20202;-47
2021/04/09 04:42:32;;;;;;;14.13;12.40;;;1.70;99.90;;;;;;5052795;28;20190;-47
2021/04/09 04:44:57;;;;;;;13.90;12.40;;;1.60;99.90;;;;;;5053662;28;20453;-58
2021/04/09 04:47:23;;;;;;;16.03;12.73;;;1.60;99.90;;;;;;5052393;28;20193;-53
2021/04/09 04:49:49;;;;;;;16.30;12.67;;;1.60;99.90;;;;;;5053453;28;20696;-47
2021/04/09 04:52:14;;;;;;;16.80;13.10;;;1.70;99.90;;;;;;5053288;28;20489;-47
2021/04/09 04:54:40;;;;;;;14.60;12.70;;;1.80;99.90;;;;;;5054317;28;20581;-53
2021/04/09 04:57:06;;;;;;;15.53;12.43;;;1.80;99.90;;;;;;5068344;28;20214;-49
2021/04/09 04:59:31;;;;;;;14.00;12.50;;;1.90;99.90;;;;;;5057625;28;20561;-49
2021/04/09 05:01:57;;;;;;;15.83;12.77;;;2.00;99.90;;;;;;5056593;28;20206;-56
2021/04/09 05:04:23;;;;;;;16.30;12.67;;;2.00;99.90;;;;;;5056838;28;20203;-55
2021/04/09 05:06:49;;;;;;;14.50;13.00;;;2.00;99.90;;;;;;5056107;28;20187;-47
2021/04/09 05:09:14;;;;;;;14.97;13.47;;;2.00;99.90;;;;;;5056407;28;20433;-48
2021/04/09 05:11:40;;;;;;;14.90;12.50;;;2.10;99.90;;;;;;5075089;28;20179;-52
2021/04/09 05:14:06;;;;;;;15.23;12.33;;;2.10;99.90;;;;;;5059727;28;20236;-47
2021/04/09 05:16:31;;;;;;;15.17;12.50;;;2.10;99.90;;;;;;5071612;28;20202;-53
2021/04/09 05:18:57;;;;;;;15.43;12.53;;;2.20;99.90;;;;;;5073192;28;20190;-48
2021/04/09 05:21:24;;;;;;;15.00;11.83;;;2.20;99.90;;;;;;5057940;28;20214;-47
2021/04/09 05:23:49;;;;;;;14.00;12.07;;;2.30;99.90;;;;;;5067432;28;20220;-49
2021/04/09 05:26:15;;;;;;;14.00;12.33;;;2.30;99.90;;;;;;5078629;28;20464;-54
2021/04/09 05:28:40;;;;;;;15.63;12.47;;;2.40;99.90;;;;;;5059481;28;20175;-52
2021/04/09 05:31:06;;;;;;;13.80;11.77;;;2.30;99.90;;;;;;5055486;28;20213;-55
2021/04/09 05:33:32;;;;;;;13.77;12.30;;;2.40;99.90;;;;;;5064155;28;20289;-56
2021/04/09 05:35:57;;;;;;;15.60;11.70;;;2.40;99.90;;;;;;5073226;28;20213;-49
2021/04/09 05:38:23;;;;;;;13.90;11.97;;;2.40;99.90;;;;;;5081370;28;20423;-46
2021/04/09 05:40:48;;;;;;;13.30;11.90;;;2.50;99.90;;;;;;5069979;28;20183;-53
2021/04/09 05:43:14;;;;;;;13.17;11.50;;;2.50;99.90;;;;;;5057400;28;20183;-54
2021/04/09 05:45:39;;;;;;;14.63;11.87;;;2.50;99.90;;;;;;5059364;28;20238;-54
2021/04/09 05:48:07;;;;;;;15.10;11.77;;;2.50;99.90;;;;;;5064500;28;20212;-53
2021/04/09 05:50:34;;;;;;;13.40;11.30;;;2.60;99.90;;;;;;5063296;28;20210;-47
2021/04/09 05:52:59;;;;;;;12.93;11.30;;;2.70;99.90;;;;;;5057461;28;20458;-57
2021/04/09 05:55:25;;;;;;;14.43;11.20;;;2.90;99.90;;;;;;5060568;28;20445;-53
2021/04/09 05:57:51;;;;;;;16.23;12.03;;;3.00;99.90;;;;;;5057195;28;20539;-54
2021/04/09 06:00:17;;;;;;;12.50;10.60;;;3.20;99.90;;;;;;5061077;28;20171;-51
2021/04/09 06:02:43;;;;;;;13.33;10.57;;;3.30;99.90;;;;;;5066855;28;20179;-47
2021/04/09 06:05:09;;;;;;;11.93;9.83;;;3.30;99.90;;;;;;5073649;28;20475;-47
2021/04/09 06:07:34;;;;;;;12.80;10.90;;;3.40;99.90;;;;;;5070631;28;20178;-52
2021/04/09 06:10:00;;;;;;;12.97;10.10;;;3.50;99.90;;;;;;5058421;28;20418;-53
2021/04/09 06:12:25;;;;;;;15.00;10.47;;;3.50;99.90;;;;;;5061865;28;20182;-47
2021/04/09 06:14:54;;;;;;;12.03;10.57;;;3.50;99.90;;;;;;5055113;28;20171;-52
2021/04/09 06:17:19;;;;;;;11.93;9.93;;;3.50;99.90;;;;;;5071742;28;20285;-51
2021/04/09 06:19:47;;;;;;;11.33;9.83;;;3.50;99.90;;;;;;5074715;28;20266;-47
2021/04/09 06:22:13;;;;;;;14.73;11.10;;;3.50;99.90;;;;;;5075831;28;20167;-46
2021/04/09 06:24:40;;;;;;;13.87;11.03;;;3.50;99.90;;;;;;5075212;28;20189;-46
2021/04/09 06:27:07;;;;;;;13.73;11.37;;;3.50;99.90;;;;;;5074875;28;20201;-56
2021/04/09 06:29:32;;;;;;;12.43;11.10;;;3.40;99.90;;;;;;5072372;28;20431;-52
2021/04/09 06:31:58;;;;;;;11.23;10.03;;;3.40;99.90;;;;;;5073973;28;20203;-52
2021/04/09 06:34:24;;;;;;;13.63;10.73;;;3.40;99.90;;;;;;5075253;28;20201;-53
2021/04/09 06:36:49;;;;;;;11.57;10.37;;;3.50;99.90;;;;;;5074726;28;20570;-52
2021/04/09 06:39:15;;;;;;;11.60;9.93;;;3.60;99.90;;;;;;5073555;28;20186;-48
2021/04/09 06:41:40;;;;;;;12.83;10.47;;;3.60;99.90;;;;;;5072419;28;20183;-49
2021/04/09 06:44:06;;;;;;;12.57;10.30;;;3.70;99.90;;;;;;5065383;28;20195;-46
2021/04/09 06:46:35;;;;;;;12.47;9.83;;;3.60;99.90;;;;;;5075275;28;20210;-53
2021/04/09 06:49:01;;;;;;;11.40;9.90;;;3.60;99.90;;;;;;5074733;28;20202;-52
2021/04/09 06:51:27;;;;;;;12.43;9.80;;;3.70;99.90;;;;;;5074729;28;20210;-46
2021/04/09 06:53:53;;;;;;;13.07;9.80;;;3.80;99.90;;;;;;5073401;28;20163;-46
2021/04/09 06:56:22;;;;;;;13.43;10.33;;;3.80;99.90;;;;;;5075131;28;20202;-55
2021/04/09 06:58:49;;;;;;;12.50;10.93;;;3.70;99.90;;;;;;5075356;28;20189;-49
2021/04/09 07:01:20;;;;;;;11.40;10.20;;;3.70;99.90;;;;;;5073639;28;20186;-46
2021/04/09 07:03:45;;;;;;;11.10;9.53;;;3.90;99.90;;;;;;5074978;28;20316;-53
2021/04/09 07:06:11;;;;;;;11.33;9.40;;;4.00;99.90;;;;;;5075192;28;20292;-52
2021/04/09 07:08:38;;;;;;;11.47;9.73;;;4.00;99.90;;;;;;5070508;28;20234;-52
2021/04/09 07:11:04;;;;;;;11.57;8.80;;;4.00;99.90;;;;;;5064136;28;20488;-58
2021/04/09 07:13:30;;;;;;;10.73;8.97;;;4.10;99.90;;;;;;5073721;28;20193;-51
2021/04/09 07:15:56;;;;;;;9.33;8.10;;;4.30;99.90;;;;;;5074458;28;20281;-56
2021/04/09 07:18:45;;;;;;;11.17;9.27;;;4.20;99.90;;;;;;5073783;28;20187;-49
2021/04/09 07:21:32;;;;;;;11.33;9.20;;;4.30;99.90;;;;;;5074336;28;20320;-51
2021/04/09 07:24:13;;;;;;;10.90;8.67;;;4.50;99.90;;;;;;5074871;28;20300;-53
2021/04/09 07:26:58;;;;;;;10.27;8.53;;;4.80;99.90;;;;;;5074429;28;20209;-51
2021/04/09 07:29:39;;;;;;;8.77;7.23;;;5.00;99.90;;;;;;5075207;28;20162;-47
2021/04/09 07:32:14;;;;;;;9.03;7.93;;;5.20;99.90;;;;;;5073156;28;20193;-48
2021/04/09 07:34:52;;;;;;;10.43;8.23;;;5.30;99.90;;;;;;5074344;28;20174;-49
2021/04/09 07:37:19;;;;;;;9.30;7.93;;;5.30;99.90;;;;;;5073686;28;20229;-46
2021/04/09 07:39:46;;;;;;;9.97;8.10;;;5.30;99.90;;;;;;5074715;28;20174;-46
2021/04/09 07:42:13;;;;;;;10.47;8.43;;;5.50;99.90;;;;;;5074009;28;20167;-46
2021/04/09 07:44:39;;;;;;;10.03;8.47;;;5.70;99.90;;;;;;5065675;28;20203;-49
2021/04/09 07:47:10;;;;;;;8.60;7.80;;;5.80;99.90;;;;;;5065518;28;20203;-55
2021/04/09 07:49:36;;;;;;;9.30;7.93;;;6.00;99.90;;;;;;5064206;28;20171;-54
2021/04/09 07:52:13;;;;;;;9.73;7.40;;;6.10;99.90;;;;;;5053944;28;20240;-52
2021/04/09 07:54:39;;;;;;;8.90;7.30;;;6.20;99.90;;;;;;5054443;28;20380;-48
2021/04/09 07:57:06;;;;;;;8.63;7.73;;;6.40;99.90;;;;;;5060550;28;20654;-47
2021/04/09 07:59:39;;;;;;;8.23;7.37;;;6.40;99.90;;;;;;5084001;28;20499;-55
2021/04/09 08:02:05;;;;;;;10.03;8.10;;;6.60;99.90;;;;;;5058331;28;20198;-47
2021/04/09 08:04:39;;;;;;;8.87;7.57;;;6.80;99.90;;;;;;5058026;28;20523;-52
2021/04/09 08:07:04;;;;;;;8.43;7.53;;;7.00;99.90;;;;;;5068291;28;20538;-51
2021/04/09 08:09:47;;;;;;;9.37;7.90;;;7.00;99.90;;;;;;5072906;28;20178;-47
2021/04/09 08:12:29;;;;;;;8.03;7.10;;;6.50;99.90;;;;;;5080705;28;20170;-47
2021/04/09 08:14:56;;;;;;;8.53;7.60;;;7.20;99.90;;;;;;5073596;28;20182;-56
2021/04/09 08:17:23;;;;;;;10.50;7.87;;;7.20;99.90;;;;;;5084511;28;20224;-47
2021/04/09 08:19:55;;;;;;;7.97;7.17;;;7.30;99.90;;;;;;5085379;28;20182;-50
2021/04/09 08:22:22;;;;;;;9.43;7.43;;;7.30;99.90;;;;;;5076133;28;20170;-53
2021/04/09 08:24:49;;;;;;;9.53;7.57;;;7.30;99.90;;;;;;5093747;28;20182;-58
2021/04/09 08:27:15;;;;;;;7.57;6.77;;;7.20;99.90;;;;;;5091347;28;20556;-46
2021/04/09 08:29:42;;;;;;;7.70;6.67;;;7.20;99.90;;;;;;5063879;28;20171;-46
2021/04/09 08:32:10;;;;;;;8.37;6.50;;;7.30;99.90;;;;;;5056775;28;20266;-52
2021/04/09 08:34:37;;;;;;;7.43;6.67;;;7.40;99.90;;;;;;5057738;28;20655;-48
2021/04/09 08:37:03;;;;;;;9.00;6.97;;;7.40;99.90;;;;;;5057638;28;20244;-47
2021/04/09 08:39:29;;;;;;;10.10;7.30;;;7.40;99.90;;;;;;5056998;28;20182;-47
2021/04/09 08:41:56;;;;;;;7.33;6.63;;;7.40;99.30;;;;;;5057732;28;20167;-58
2021/04/09 08:44:23;;;;;;;7.70;6.30;;;7.60;99.90;;;;;;5062282;28;20193;-46
2021/04/09 08:46:48;;;;;;;8.13;6.37;;;7.70;99.90;;;;;;5078186;28;20206;-47
2021/04/09 08:49:16;;;;;;;7.30;6.13;;;7.80;99.00;;;;;;5077438;28;20169;-47
2021/04/09 08:51:43;;;;;;;9.07;5.97;;;7.80;98.90;;;;;;5078050;28;20490;-48
2021/04/09 08:54:14;;;;;;;7.60;6.40;;;7.80;99.80;;;;;;5077393;28;20175;-52
2021/04/09 08:56:41;;;;;;;7.50;6.10;;;7.80;99.40;;;;;;5061626;28;20227;-47
2021/04/09 08:59:06;;;;;;;7.57;6.30;;;8.00;99.80;;;;;;5057698;28;20179;-52
2021/04/09 09:01:32;;;;;;;7.63;6.83;;;8.10;98.40;;;;;;5057021;28;20233;-52
2021/04/09 09:04:24;;;;;;;6.70;6.00;;;8.10;99.90;;;;;;5067849;28;20202;-52
2021/04/09 09:06:50;;;;;;;9.47;7.27;;;8.50;99.90;;;;;;5074589;28;20271;-47
2021/04/09 09:09:33;;;;;;;7.70;6.33;;;8.50;98.60;;;;;;5065886;28;20218;-51
2021/04/09 09:12:02;;;;;;;7.97;5.77;;;8.60;99.30;;;;;;5056755;28;20163;-50
2021/04/09 09:14:34;;;;;;;7.33;6.20;;;8.80;99.90;;;;;;5055774;28;20260;-50
2021/04/09 09:17:18;;;;;;;7.00;5.97;;;9.00;98.40;;;;;;5056895;28;20519;-47
2021/04/09 09:20:06;;;;;;;6.70;5.83;;;9.00;98.80;;;;;;5056668;28;20175;-51
2021/04/09 09:22:50;;;;;;;7.93;6.10;;;9.10;98.20;;;;;;5056686;28;20238;-51
2021/04/09 09:25:29;;;;;;;6.40;5.73;;;9.10;97.90;;;;;;5056617;28;20655;-58
2021/04/09 09:27:54;;;;;;;9.63;6.23;;;9.20;98.20;;;;;;5056893;28;20191;-51
2021/04/09 09:30:28;;;;;;;7.37;5.37;;;9.40;98.00;;;;;;5056857;28;20172;-47
2021/04/09 09:33:26;;;;;;;6.70;5.70;;;9.60;97.00;;;;;;5056550;28;20635;-47
2021/04/09 09:36:01;;;;;;;8.10;5.90;;;9.70;97.00;;;;;;5056414;28;20237;-47
2021/04/09 09:38:48;;;;;;;7.70;5.40;;;9.80;97.40;;;;;;5057032;28;20541;-47
2021/04/09 09:41:37;;;;;;;6.20;4.93;;;10.00;94.50;;;;;;5054279;28;20187;-48
2021/04/09 09:44:23;;;;;;;6.03;4.10;;;10.20;95.30;;;;;;5057378;28;20187;-58
2021/04/09 09:47:06;;;;;;;4.60;3.93;;;10.20;91.40;;;;;;5061015;28;20215;-54
2021/04/09 09:49:35;;;;;;;4.90;4.30;;;10.00;91.50;;;;;;5060555;28;20175;-52
2021/04/09 09:52:04;;;;;;;7.10;4.80;;;10.10;92.60;;;;;;5071302;28;20182;-51
2021/04/09 09:54:32;;;;;;;5.10;3.80;;;10.20;92.80;;;;;;5063564;28;20205;-47
2021/04/09 09:57:19;;;;;;;4.77;3.60;;;10.40;92.50;;;;;;5071469;28;20190;-48
2021/04/09 09:59:45;;;;;;;4.67;4.00;;;10.50;91.90;;;;;;5067482;28;20600;-47
2021/04/09 10:02:17;;;;;;;4.47;3.27;;;10.80;93.00;;;;;;5067345;28;20543;-48
2021/04/09 10:04:44;;;;;;;3.40;3.07;;;10.90;89.90;;;;;;5084705;28;20193;-58
2021/04/09 10:07:09;;;;;;;3.93;3.53;;;11.00;90.30;;;;;;5075542;28;20194;-53
2021/04/09 10:09:35;;;;;;;4.90;3.50;;;11.20;89.40;;;;;;5064961;28;20191;-47
2021/04/09 10:12:00;;;;;;;4.17;3.70;;;11.40;88.10;;;;;;5054170;28;20631;-53
2021/04/09 10:14:28;;;;;;;3.90;3.50;;;11.60;85.70;;;;;;5069569;28;20193;-51
2021/04/09 10:16:55;;;;;;;4.60;3.47;;;11.60;87.00;;;;;;5074864;28;20194;-51
2021/04/09 10:19:21;;;;;;;3.73;3.30;;;11.60;85.40;;;;;;5065929;28;20202;-51
2021/04/09 10:21:47;;;;;;;3.90;3.50;;;11.70;83.80;;;;;;5055698;28;20260;-47
2021/04/09 10:24:15;;;;;;;5.87;3.83;;;11.80;88.60;;;;;;5065987;28;20199;-46
2021/04/09 10:26:53;;;;;;;4.40;3.70;;;12.00;88.70;;;;;;5075080;28;20210;-48
2021/04/09 10:29:30;;;;;;;5.07;3.97;;;12.00;88.70;;;;;;5057159;28;20664;-53
2021/04/09 10:31:58;;;;;;;4.80;4.17;;;12.10;86.70;;;;;;5057899;28;20179;-55
2021/04/09 10:34:33;;;;;;;4.93;4.00;;;12.10;84.20;;;;;;5059100;28;20623;-50
2021/04/09 10:37:00;;;;;;;4.57;4.00;;;12.30;87.70;;;;;;5059206;28;20261;-58
2021/04/09 10:39:27;;;;;;;4.33;3.83;;;12.40;85.80;;;;;;5056146;28;20566;-49
2021/04/09 10:41:54;;;;;;;5.27;4.10;;;12.50;85.80;;;;;;5055333;28;20627;-48
2021/04/09 10:44:28;;;;;;;6.53;4.10;;;14.10;88.00;;;;;;5066899;28;20178;-51
2021/04/09 10:46:59;;;;;;;5.17;3.90;;;12.70;84.80;;;;;;5074883;28;20554;-52
2021/04/09 10:49:27;;;;;;;4.47;4.00;;;13.00;85.60;;;;;;5073713;28;20190;-51
2021/04/09 10:51:55;;;;;;;3.93;3.63;;;13.20;82.90;;;;;;5058215;28;20266;-48
2021/04/09 10:54:23;;;;;;;6.63;3.50;;;13.20;80.80;;;;;;5059272;28;20226;-56
2021/04/09 10:57:00;;;;;;;4.97;4.03;;;13.40;79.90;;;;;;5061367;28;20404;-54
2021/04/09 10:59:26;;;;;;;5.00;4.07;;;14.00;79.70;;;;;;5063640;28;20172;-47
2021/04/09 11:01:53;;;;;;;5.23;3.80;;;14.20;78.20;;;;;;5072958;28;20185;-47
2021/04/09 11:04:19;;;;;;;6.10;3.70;;;14.30;80.50;;;;;;5074022;28;20245;-47
2021/04/09 11:06:53;;;;;;;4.43;3.87;;;14.70;79.30;;;;;;5073311;28;20285;-59
2021/04/09 11:09:20;;;;;;;3.77;3.43;;;15.20;75.00;;;;;;5072941;28;20170;-54
2021/04/09 11:11:45;;;;;;;4.00;3.60;;;15.70;78.80;;;;;;5074185;28;20166;-58
2021/04/09 11:14:19;;;;;;;4.83;3.50;;;15.90;73.30;;;;;;5073430;28;20182;-53
2021/04/09 11:16:56;;;;;;;5.10;4.00;;;15.70;72.40;;;;;;5066247;28;20226;-48
2021/04/09 11:19:27;;;;;;;4.17;3.67;;;15.50;72.60;;;;;;5067312;28;20171;-48
2021/04/09 11:21:55;;;;;;;6.60;3.77;;;15.50;72.80;;;;;;5055369;28;20662;-47
2021/04/09 11:24:33;;;;;;;4.70;3.80;;;15.90;74.40;;;;;;5075017;28;20184;-59
2021/04/09 11:27:16;;;;;;;5.27;3.73;;;16.40;71.30;;;;;;5056127;28;20219;-51
2021/04/09 11:29:42;;;;;;;6.23;4.00;;;16.80;68.30;;;;;;5063307;28;20271;-59
2021/04/09 11:32:11;;;;;;;4.13;3.70;;;17.00;67.70;;;;;;5053642;28;20191;-51
2021/04/09 11:34:40;;;;;;;4.83;3.90;;;17.20;68.50;;;;;;5062658;28;20202;-48
2021/04/09 11:37:06;;;;;;;5.50;3.60;;;17.80;68.60;;;;;;5055257;28;20256;-51
2021/04/09 11:39:31;;;;;;;5.10;3.60;;;18.50;68.50;;;;;;5060210;28;20202;-53
2021/04/09 11:42:08;;;;;;;4.30;3.57;;;18.90;65.60;;;;;;5073840;28;20178;-52
2021/04/09 11:44:38;;;;;;;4.63;3.40;;;19.00;61.10;;;;;;5065557;28;20173;-53
2021/04/09 11:47:40;;;;;;;3.58;3.22;;;19.60;60.60;;;;;;5068832;28;20198;-60
2021/04/09 11:50:22;;;;;;;4.25;3.70;;;20.60;59.50;;;;;;5028889;28;20259;-49
2021/04/09 11:53:05;;;;;;;3.50;3.20;;;21.40;63.00;;;;;;5030120;28;20180;-48
2021/04/09 11:55:33;;;;;;;5.78;3.35;;;23.50;55.80;;;;;;5019200;28;20248;-57
2021/04/09 11:57:58;;;;;;;5.18;3.03;;;24.40;50.80;;;;;;5015505;28;20216;-53
2021/04/09 12:00:29;;;;;;;4.72;3.40;;;24.50;50.40;;;;;;5011980;28;20177;-49
2021/04/09 12:02:58;;;;;;;2.78;2.58;;;24.90;51.20;;;;;;5019716;28;20203;-58
2021/04/09 12:05:27;;;;;;;5.20;3.60;;;25.70;51.30;;;;;;5030135;28;20227;-46
2021/04/09 12:07:53;;;;;;;5.57;3.33;;;25.30;46.60;;;;;;5012129;28;20176;-48
2021/04/09 12:10:21;;;;;;;3.83;3.08;;;24.90;47.40;;;;;;5012000;28;20185;-48
2021/04/09 12:12:47;;;;;;;4.78;3.60;;;24.70;49.20;;;;;;5026461;28;20668;-51
2021/04/09 12:15:13;;;;;;;3.40;3.10;;;24.60;46.00;;;;;;5012946;28;20205;-48
2021/04/09 12:17:38;;;;;;;4.15;3.28;;;24.10;46.80;;;;;;5023628;28;20192;-53
2021/04/09 12:20:16;;;;;;;4.15;3.33;;;24.40;49.20;;;;;;5023195;28;20255;-57
2021/04/09 12:22:43;;;;;;;4.50;3.63;;;24.90;50.00;;;;;;5025476;28;20176;-55
2021/04/09 12:25:10;;;;;;;3.78;3.40;;;24.50;45.40;;;;;;5057691;28;20229;-60
2021/04/09 12:27:36;;;;;;;4.00;3.30;;;24.10;47.20;;;;;;5064774;28;20305;-47
2021/04/09 12:30:04;;;;;;;4.13;3.72;;;24.80;47.00;;;;;;5056933;28;20255;-54
2021/04/09 12:32:29;;;;;;;4.90;3.65;;;24.50;45.30;;;;;;5059882;28;20232;-50
2021/04/09 12:34:55;;;;;;;4.18;3.78;;;23.40;45.00;;;;;;5060804;28;20183;-50
2021/04/09 12:37:21;;;;;;;3.75;3.40;;;22.30;46.80;;;;;;5056739;28;20709;-61
2021/04/09 12:39:47;;;;;;;3.88;3.47;;;23.50;49.80;;;;;;5062422;28;20183;-55
2021/04/09 12:42:12;;;;;;;5.15;3.80;;;23.90;45.90;;;;;;5062994;28;20194;-54
2021/04/09 12:44:38;;;;;;;5.85;3.72;;;23.50;44.80;;;;;;5073996;28;20681;-53
2021/04/09 12:47:04;;;;;;;3.88;3.47;;;23.10;44.90;;;;;;5064349;28;20198;-53
2021/04/09 12:49:29;;;;;;;4.22;3.30;;;23.00;46.10;;;;;;5061030;28;20657;-50
2021/04/09 12:51:55;;;;;;;3.70;3.40;;;22.20;45.90;;;;;;5070699;28;20179;-58